sensor_id;sensor_type;location;lat;lon;timestamp;temperature;humidity
33994;DHT22;20673;48.980;8.138;2023-11-21T00:02:16;9.50;99.90
33994;DHT22;20673;48.980;8.138;2023-11-21T00:04:42;9.50;99.90
33994;DHT22;20673;48.980;8.138;2023-11-21T00:07:08;9.60;99.90
33994;DHT22;20673;48.980;8.138;2023-11-21T00:09:35;9.50;99.90
33994;DHT22;20673;48.980;8.138;2023-11-21T00:12:02;9.50;99.90
33994;DHT22;20673;48.980;8.138;2023-11-21T00:14:28;9.60;99.90
33994;DHT22;20673;48.980;8.138;2023-11-21T00:16:54;9.60;99.90
33994;DHT22;20673;48.980;8.138;2023-11-21T00:19:20;9.50;99.90
33994;DHT22;20673;48.980;8.138;2023-11-21T00:21:47;9.50;99.90
33994;DHT22;20673;48.980;8.138;2023-11-21T00:24:13;9.50;99.90
33994;DHT22;20673;48.980;8.138;2023-11-21T00:26:40;9.50;99.90
33994;DHT22;20673;48.980;8.138;2023-11-21T00:29:06;9.50;99.90
33994;DHT22;20673;48.980;8.138;2023-11-21T00:31:34;9.50;99.90
33994;DHT22;20673;48.980;8.138;2023-11-21T00:34:04;9.50;99.90
33994;DHT22;20673;48.980;8.138;2023-11-21T00:36:31;9.50;99.90
33994;DHT22;20673;48.980;8.138;2023-11-21T00:38:58;9.50;99.90
33994;DHT22;20673;48.980;8.138;2023-11-21T00:41:25;9.50;99.90
33994;DHT22;20673;48.980;8.138;2023-11-21T00:43:54;9.50;99.90
33994;DHT22;20673;48.980;8.138;2023-11-21T00:46:21;9.60;99.90
33994;DHT22;20673;48.980;8.138;2023-11-21T00:48:47;9.60;99.90
33994;DHT22;20673;48.980;8.138;2023-11-21T00:51:13;9.60;99.90
33994;DHT22;20673;48.980;8.138;2023-11-21T00:53:39;9.60;99.90
33994;DHT22;20673;48.980;8.138;2023-11-21T00:56:05;9.70;99.90
33994;DHT22;20673;48.980;8.138;2023-11-21T00:58:34;9.70;99.90
33994;DHT22;20673;48.980;8.138;2023-11-21T01:01:01;9.60;99.90
33994;DHT22;20673;48.980;8.138;2023-11-21T01:03:28;9.60;99.90
33994;DHT22;20673;48.980;8.138;2023-11-21T01:05:54;9.60;99.90
33994;DHT22;20673;48.980;8.138;2023-11-21T01:08:20;9.60;99.90
33994;DHT22;20673;48.980;8.138;2023-11-21T01:10:47;9.60;99.90
33994;DHT22;20673;48.980;8.138;2023-11-21T01:13:13;9.60;99.90
33994;DHT22;20673;48.980;8.138;2023-11-21T01:15:41;9.50;99.90
33994;DHT22;20673;48.980;8.138;2023-11-21T01:18:07;9.50;99.90
33994;DHT22;20673;48.980;8.138;2023-11-21T01:20:36;9.60;99.90
33994;DHT22;20673;48.980;8.138;2023-11-21T01:23:02;9.60;99.90
33994;DHT22;20673;48.980;8.138;2023-11-21T01:25:28;9.60;99.90
33994;DHT22;20673;48.980;8.138;2023-11-21T01:27:54;9.60;99.90
33994;DHT22;20673;48.980;8.138;2023-11-21T01:30:20;9.60;99.90
33994;DHT22;20673;48.980;8.138;2023-11-21T01:32:46;9.50;99.90
33994;DHT22;20673;48.980;8.138;2023-11-21T01:35:12;9.50;99.90
33994;DHT22;20673;48.980;8.138;2023-11-21T01:37:39;9.50;99.90
33994;DHT22;20673;48.980;8.138;2023-11-21T01:40:06;9.50;99.90
33994;DHT22;20673;48.980;8.138;2023-11-21T01:42:34;9.50;99.90
33994;DHT22;20673;48.980;8.138;2023-11-21T01:45:01;9.50;99.90
33994;DHT22;20673;48.980;8.138;2023-11-21T01:47:29;9.50;99.90
33994;DHT22;20673;48.980;8.138;2023-11-21T01:49:56;9.50;99.90
33994;DHT22;20673;48.980;8.138;2023-11-21T01:52:22;9.40;99.90
33994;DHT22;20673;48.980;8.138;2023-11-21T01:54:49;9.40;99.90
33994;DHT22;20673;48.980;8.138;2023-11-21T01:57:15;9.30;99.90
33994;DHT22;20673;48.980;8.138;2023-11-21T01:59:42;9.30;99.90
33994;DHT22;20673;48.980;8.138;2023-11-21T02:02:10;9.20;99.90
33994;DHT22;20673;48.980;8.138;2023-11-21T02:04:36;9.20;99.90
33994;DHT22;20673;48.980;8.138;2023-11-21T02:07:03;9.10;99.90
33994;DHT22;20673;48.980;8.138;2023-11-21T02:09:31;9.10;99.90
33994;DHT22;20673;48.980;8.138;2023-11-21T02:11:58;9.20;99.90
33994;DHT22;20673;48.980;8.138;2023-11-21T02:14:26;9.10;99.90
33994;DHT22;20673;48.980;8.138;2023-11-21T02:16:54;9.20;99.90
33994;DHT22;20673;48.980;8.138;2023-11-21T02:19:28;9.20;99.90
33994;DHT22;20673;48.980;8.138;2023-11-21T02:21:57;9.20;99.90
33994;DHT22;20673;48.980;8.138;2023-11-21T02:24:26;9.20;99.90
33994;DHT22;20673;48.980;8.138;2023-11-21T02:26:52;9.20;99.90
33994;DHT22;20673;48.980;8.138;2023-11-21T02:29:19;9.20;99.90
33994;DHT22;20673;48.980;8.138;2023-11-21T02:31:52;9.30;99.90
33994;DHT22;20673;48.980;8.138;2023-11-21T02:34:20;9.30;99.90
33994;DHT22;20673;48.980;8.138;2023-11-21T02:36:48;9.30;99.90
33994;DHT22;20673;48.980;8.138;2023-11-21T02:39:17;9.20;99.90
33994;DHT22;20673;48.980;8.138;2023-11-21T02:41:46;9.30;99.90
33994;DHT22;20673;48.980;8.138;2023-11-21T02:44:12;9.30;99.90
33994;DHT22;20673;48.980;8.138;2023-11-21T02:46:38;9.30;99.90
33994;DHT22;20673;48.980;8.138;2023-11-21T02:49:05;9.40;99.90
33994;DHT22;20673;48.980;8.138;2023-11-21T02:51:32;9.30;99.90
33994;DHT22;20673;48.980;8.138;2023-11-21T02:54:01;9.30;99.90
33994;DHT22;20673;48.980;8.138;2023-11-21T02:56:29;9.30;99.90
33994;DHT22;20673;48.980;8.138;2023-11-21T02:58:55;9.20;99.90
33994;DHT22;20673;48.980;8.138;2023-11-21T03:01:22;9.20;99.90
33994;DHT22;20673;48.980;8.138;2023-11-21T03:03:52;9.20;99.90
33994;DHT22;20673;48.980;8.138;2023-11-21T03:06:18;9.20;99.90
33994;DHT22;20673;48.980;8.138;2023-11-21T03:08:45;9.20;99.90
33994;DHT22;20673;48.980;8.138;2023-11-21T03:11:12;9.20;99.90
33994;DHT22;20673;48.980;8.138;2023-11-21T03:13:42;9.30;99.90
33994;DHT22;20673;48.980;8.138;2023-11-21T03:16:09;9.20;99.90
33994;DHT22;20673;48.980;8.138;2023-11-21T03:18:39;9.20;99.90
33994;DHT22;20673;48.980;8.138;2023-11-21T03:21:06;9.20;99.90
33994;DHT22;20673;48.980;8.138;2023-11-21T03:23:36;9.20;99.90
33994;DHT22;20673;48.980;8.138;2023-11-21T03:26:03;9.10;99.90
33994;DHT22;20673;48.980;8.138;2023-11-21T03:28:29;9.10;99.90
33994;DHT22;20673;48.980;8.138;2023-11-21T03:30:56;9.10;99.90
33994;DHT22;20673;48.980;8.138;2023-11-21T03:33:22;9.10;99.90
33994;DHT22;20673;48.980;8.138;2023-11-21T03:35:48;9.10;99.90
33994;DHT22;20673;48.980;8.138;2023-11-21T03:38:15;9.10;99.90
33994;DHT22;20673;48.980;8.138;2023-11-21T03:40:42;9.10;99.90
33994;DHT22;20673;48.980;8.138;2023-11-21T03:43:08;9.10;99.90
33994;DHT22;20673;48.980;8.138;2023-11-21T03:45:34;9.10;99.90
33994;DHT22;20673;48.980;8.138;2023-11-21T03:48:00;9.10;99.90
33994;DHT22;20673;48.980;8.138;2023-11-21T03:50:30;9.10;99.90
33994;DHT22;20673;48.980;8.138;2023-11-21T03:52:56;9.10;99.90
33994;DHT22;20673;48.980;8.138;2023-11-21T03:55:22;9.10;99.90
33994;DHT22;20673;48.980;8.138;2023-11-21T03:57:51;9.10;99.90
33994;DHT22;20673;48.980;8.138;2023-11-21T04:00:18;9.00;99.90
33994;DHT22;20673;48.980;8.138;2023-11-21T04:02:46;9.00;99.90
33994;DHT22;20673;48.980;8.138;2023-11-21T04:05:12;9.00;99.90
33994;DHT22;20673;48.980;8.138;2023-11-21T04:07:38;9.00;99.90
33994;DHT22;20673;48.980;8.138;2023-11-21T04:10:06;9.00;99.90
33994;DHT22;20673;48.980;8.138;2023-11-21T04:12:37;9.10;99.90
33994;DHT22;20673;48.980;8.138;2023-11-21T04:15:03;9.10;99.90
33994;DHT22;20673;48.980;8.138;2023-11-21T04:17:30;9.00;99.90
33994;DHT22;20673;48.980;8.138;2023-11-21T04:19:56;9.10;99.90
33994;DHT22;20673;48.980;8.138;2023-11-21T04:22:22;9.10;99.90
33994;DHT22;20673;48.980;8.138;2023-11-21T04:24:48;9.00;99.90
33994;DHT22;20673;48.980;8.138;2023-11-21T04:27:14;9.00;99.90
33994;DHT22;20673;48.980;8.138;2023-11-21T04:29:42;9.00;99.90
33994;DHT22;20673;48.980;8.138;2023-11-21T04:32:08;9.00;99.90
33994;DHT22;20673;48.980;8.138;2023-11-21T04:34:34;9.00;99.90
33994;DHT22;20673;48.980;8.138;2023-11-21T04:37:01;9.00;99.90
33994;DHT22;20673;48.980;8.138;2023-11-21T04:39:27;9.00;99.90
33994;DHT22;20673;48.980;8.138;2023-11-21T04:41:53;9.00;99.90
33994;DHT22;20673;48.980;8.138;2023-11-21T04:44:19;9.00;99.90
33994;DHT22;20673;48.980;8.138;2023-11-21T04:46:45;9.00;99.90
33994;DHT22;20673;48.980;8.138;2023-11-21T04:49:11;9.10;99.90
33994;DHT22;20673;48.980;8.138;2023-11-21T04:51:37;9.10;99.90
33994;DHT22;20673;48.980;8.138;2023-11-21T04:54:04;9.10;99.90
33994;DHT22;20673;48.980;8.138;2023-11-21T04:56:31;9.10;99.90
33994;DHT22;20673;48.980;8.138;2023-11-21T04:58:57;9.10;99.90
33994;DHT22;20673;48.980;8.138;2023-11-21T05:01:23;9.10;99.90
33994;DHT22;20673;48.980;8.138;2023-11-21T05:03:49;9.10;99.90
33994;DHT22;20673;48.980;8.138;2023-11-21T05:06:15;9.10;99.90
33994;DHT22;20673;48.980;8.138;2023-11-21T05:08:41;9.10;99.90
33994;DHT22;20673;48.980;8.138;2023-11-21T05:11:08;9.10;99.90
33994;DHT22;20673;48.980;8.138;2023-11-21T05:13:36;9.10;99.90
33994;DHT22;20673;48.980;8.138;2023-11-21T05:16:03;9.10;99.90
33994;DHT22;20673;48.980;8.138;2023-11-21T05:18:32;9.10;99.90
33994;DHT22;20673;48.980;8.138;2023-11-21T05:21:00;9.10;99.90
33994;DHT22;20673;48.980;8.138;2023-11-21T05:23:26;9.10;99.90
33994;DHT22;20673;48.980;8.138;2023-11-21T05:25:52;9.10;99.90
33994;DHT22;20673;48.980;8.138;2023-11-21T05:28:18;9.10;99.90
33994;DHT22;20673;48.980;8.138;2023-11-21T05:30:44;9.10;99.90
33994;DHT22;20673;48.980;8.138;2023-11-21T05:33:10;9.10;99.90
33994;DHT22;20673;48.980;8.138;2023-11-21T05:35:36;9.10;99.90
33994;DHT22;20673;48.980;8.138;2023-11-21T05:38:03;9.10;99.90
33994;DHT22;20673;48.980;8.138;2023-11-21T05:40:29;9.10;99.90
33994;DHT22;20673;48.980;8.138;2023-11-21T05:42:55;9.00;99.90
33994;DHT22;20673;48.980;8.138;2023-11-21T05:45:21;9.10;99.90
33994;DHT22;20673;48.980;8.138;2023-11-21T05:47:47;9.10;99.90
33994;DHT22;20673;48.980;8.138;2023-11-21T05:50:16;9.10;99.90
33994;DHT22;20673;48.980;8.138;2023-11-21T05:52:46;9.10;99.90
33994;DHT22;20673;48.980;8.138;2023-11-21T05:55:14;9.10;99.90
33994;DHT22;20673;48.980;8.138;2023-11-21T05:57:42;9.10;99.90
33994;DHT22;20673;48.980;8.138;2023-11-21T06:00:15;9.10;99.90
33994;DHT22;20673;48.980;8.138;2023-11-21T06:02:50;9.10;99.90
33994;DHT22;20673;48.980;8.138;2023-11-21T06:05:20;9.10;99.90
33994;DHT22;20673;48.980;8.138;2023-11-21T06:07:49;9.10;99.90
33994;DHT22;20673;48.980;8.138;2023-11-21T06:10:21;9.10;99.90
33994;DHT22;20673;48.980;8.138;2023-11-21T06:12:49;9.10;99.90
33994;DHT22;20673;48.980;8.138;2023-11-21T06:15:16;9.00;99.90
33994;DHT22;20673;48.980;8.138;2023-11-21T06:17:44;9.10;99.90
33994;DHT22;20673;48.980;8.138;2023-11-21T06:20:12;9.10;99.90
33994;DHT22;20673;48.980;8.138;2023-11-21T06:22:45;9.10;99.90
33994;DHT22;20673;48.980;8.138;2023-11-21T06:25:13;9.10;99.90
33994;DHT22;20673;48.980;8.138;2023-11-21T06:27:41;9.10;99.90
33994;DHT22;20673;48.980;8.138;2023-11-21T06:30:09;9.10;99.90
33994;DHT22;20673;48.980;8.138;2023-11-21T06:32:38;9.10;99.90
33994;DHT22;20673;48.980;8.138;2023-11-21T06:35:06;9.10;99.90
33994;DHT22;20673;48.980;8.138;2023-11-21T06:37:34;9.00;99.90
33994;DHT22;20673;48.980;8.138;2023-11-21T06:40:00;9.10;99.90
33994;DHT22;20673;48.980;8.138;2023-11-21T06:42:27;9.10;99.90
33994;DHT22;20673;48.980;8.138;2023-11-21T06:44:54;9.00;99.90
33994;DHT22;20673;48.980;8.138;2023-11-21T06:47:23;9.00;99.90
33994;DHT22;20673;48.980;8.138;2023-11-21T06:49:53;9.10;99.90
33994;DHT22;20673;48.980;8.138;2023-11-21T06:52:19;9.10;99.90
33994;DHT22;20673;48.980;8.138;2023-11-21T06:54:48;9.00;99.90
33994;DHT22;20673;48.980;8.138;2023-11-21T06:57:17;9.00;99.90
33994;DHT22;20673;48.980;8.138;2023-11-21T06:59:44;9.10;99.90
33994;DHT22;20673;48.980;8.138;2023-11-21T07:02:10;9.00;99.90
33994;DHT22;20673;48.980;8.138;2023-11-21T07:04:37;9.00;99.90
33994;DHT22;20673;48.980;8.138;2023-11-21T07:07:03;9.10;99.90
33994;DHT22;20673;48.980;8.138;2023-11-21T07:09:30;9.00;99.90
33994;DHT22;20673;48.980;8.138;2023-11-21T07:11:57;9.00;99.90
33994;DHT22;20673;48.980;8.138;2023-11-21T07:14:23;9.00;99.90
33994;DHT22;20673;48.980;8.138;2023-11-21T07:16:49;9.10;99.90
33994;DHT22;20673;48.980;8.138;2023-11-21T07:19:15;9.10;99.90
33994;DHT22;20673;48.980;8.138;2023-11-21T07:21:41;9.10;99.90
33994;DHT22;20673;48.980;8.138;2023-11-21T07:24:08;9.10;99.90
33994;DHT22;20673;48.980;8.138;2023-11-21T07:26:34;9.10;99.90
33994;DHT22;20673;48.980;8.138;2023-11-21T07:29:02;9.10;99.90
33994;DHT22;20673;48.980;8.138;2023-11-21T07:31:29;9.10;99.90
33994;DHT22;20673;48.980;8.138;2023-11-21T07:33:55;9.10;99.90
33994;DHT22;20673;48.980;8.138;2023-11-21T07:36:25;9.10;99.90
33994;DHT22;20673;48.980;8.138;2023-11-21T07:38:51;9.20;99.90
33994;DHT22;20673;48.980;8.138;2023-11-21T07:41:19;9.10;99.90
33994;DHT22;20673;48.980;8.138;2023-11-21T07:43:46;9.10;99.90
33994;DHT22;20673;48.980;8.138;2023-11-21T07:46:13;9.10;99.90
33994;DHT22;20673;48.980;8.138;2023-11-21T07:48:40;9.20;99.90
33994;DHT22;20673;48.980;8.138;2023-11-21T07:51:08;9.10;99.90
33994;DHT22;20673;48.980;8.138;2023-11-21T07:53:36;9.10;99.90
33994;DHT22;20673;48.980;8.138;2023-11-21T07:56:06;9.10;99.90
33994;DHT22;20673;48.980;8.138;2023-11-21T07:58:34;9.10;99.90
33994;DHT22;20673;48.980;8.138;2023-11-21T08:01:04;9.20;99.90
33994;DHT22;20673;48.980;8.138;2023-11-21T08:03:30;9.20;99.90
33994;DHT22;20673;48.980;8.138;2023-11-21T08:06:01;9.20;99.90
33994;DHT22;20673;48.980;8.138;2023-11-21T08:08:25;9.20;99.90
33994;DHT22;20673;48.980;8.138;2023-11-21T08:10:53;9.20;99.90
33994;DHT22;20673;48.980;8.138;2023-11-21T08:13:26;9.20;99.90
33994;DHT22;20673;48.980;8.138;2023-11-21T08:15:57;9.20;99.90
33994;DHT22;20673;48.980;8.138;2023-11-21T08:18:31;9.20;99.90
33994;DHT22;20673;48.980;8.138;2023-11-21T08:20:57;9.20;99.90
33994;DHT22;20673;48.980;8.138;2023-11-21T08:23:23;9.20;99.90
33994;DHT22;20673;48.980;8.138;2023-11-21T08:25:53;9.30;99.90
33994;DHT22;20673;48.980;8.138;2023-11-21T08:28:20;9.30;99.90
33994;DHT22;20673;48.980;8.138;2023-11-21T08:30:47;9.40;99.90
33994;DHT22;20673;48.980;8.138;2023-11-21T08:33:14;9.50;99.90
33994;DHT22;20673;48.980;8.138;2023-11-21T08:35:40;9.50;99.90
33994;DHT22;20673;48.980;8.138;2023-11-21T08:38:06;9.50;99.90
33994;DHT22;20673;48.980;8.138;2023-11-21T08:40:33;9.60;99.90
33994;DHT22;20673;48.980;8.138;2023-11-21T08:43:00;9.70;99.90
33994;DHT22;20673;48.980;8.138;2023-11-21T08:45:28;9.70;99.90
33994;DHT22;20673;48.980;8.138;2023-11-21T08:47:54;9.70;99.90
33994;DHT22;20673;48.980;8.138;2023-11-21T08:50:20;9.70;99.90
33994;DHT22;20673;48.980;8.138;2023-11-21T08:52:47;9.70;99.90
33994;DHT22;20673;48.980;8.138;2023-11-21T08:55:14;9.80;99.90
33994;DHT22;20673;48.980;8.138;2023-11-21T08:57:42;9.70;99.90
33994;DHT22;20673;48.980;8.138;2023-11-21T09:00:10;9.70;99.90
33994;DHT22;20673;48.980;8.138;2023-11-21T09:02:38;9.70;99.90
33994;DHT22;20673;48.980;8.138;2023-11-21T09:05:08;9.70;99.90
33994;DHT22;20673;48.980;8.138;2023-11-21T09:07:35;9.70;99.90
33994;DHT22;20673;48.980;8.138;2023-11-21T09:10:03;9.70;99.90
33994;DHT22;20673;48.980;8.138;2023-11-21T09:12:29;9.80;99.90
33994;DHT22;20673;48.980;8.138;2023-11-21T09:14:57;9.80;99.90
33994;DHT22;20673;48.980;8.138;2023-11-21T09:17:23;9.90;99.90
33994;DHT22;20673;48.980;8.138;2023-11-21T09:19:49;9.90;99.90
33994;DHT22;20673;48.980;8.138;2023-11-21T09:22:17;9.90;99.90
33994;DHT22;20673;48.980;8.138;2023-11-21T09:24:44;10.00;99.90
33994;DHT22;20673;48.980;8.138;2023-11-21T09:27:10;10.00;99.90
33994;DHT22;20673;48.980;8.138;2023-11-21T09:29:36;10.10;99.90
33994;DHT22;20673;48.980;8.138;2023-11-21T09:32:05;10.20;99.90
33994;DHT22;20673;48.980;8.138;2023-11-21T09:34:34;10.30;99.90
33994;DHT22;20673;48.980;8.138;2023-11-21T09:37:02;10.30;99.90
33994;DHT22;20673;48.980;8.138;2023-11-21T09:39:30;10.30;99.90
33994;DHT22;20673;48.980;8.138;2023-11-21T09:42:00;10.30;99.90
33994;DHT22;20673;48.980;8.138;2023-11-21T09:47:21;10.40;99.90
33994;DHT22;20673;48.980;8.138;2023-11-21T09:49:49;10.40;99.90
33994;DHT22;20673;48.980;8.138;2023-11-21T09:52:22;10.50;99.90
33994;DHT22;20673;48.980;8.138;2023-11-21T09:54:52;10.50;99.90
33994;DHT22;20673;48.980;8.138;2023-11-21T09:57:23;10.50;99.90
33994;DHT22;20673;48.980;8.138;2023-11-21T09:59:51;10.50;99.90
33994;DHT22;20673;48.980;8.138;2023-11-21T10:02:22;10.50;99.90
33994;DHT22;20673;48.980;8.138;2023-11-21T10:04:56;10.50;99.90
33994;DHT22;20673;48.980;8.138;2023-11-21T10:07:23;10.60;99.90
33994;DHT22;20673;48.980;8.138;2023-11-21T10:09:51;10.60;99.90
33994;DHT22;20673;48.980;8.138;2023-11-21T10:12:17;10.60;99.90
33994;DHT22;20673;48.980;8.138;2023-11-21T10:14:51;10.60;99.90
33994;DHT22;20673;48.980;8.138;2023-11-21T10:17:24;10.80;99.90
33994;DHT22;20673;48.980;8.138;2023-11-21T10:19:53;10.80;99.90
33994;DHT22;20673;48.980;8.138;2023-11-21T10:22:21;10.80;99.90
33994;DHT22;20673;48.980;8.138;2023-11-21T10:24:47;10.80;99.90
33994;DHT22;20673;48.980;8.138;2023-11-21T10:27:13;10.80;99.90
33994;DHT22;20673;48.980;8.138;2023-11-21T10:29:40;10.80;99.90
33994;DHT22;20673;48.980;8.138;2023-11-21T10:32:07;10.80;99.90
33994;DHT22;20673;48.980;8.138;2023-11-21T10:34:33;10.80;99.90
33994;DHT22;20673;48.980;8.138;2023-11-21T10:37:19;10.90;99.90
33994;DHT22;20673;48.980;8.138;2023-11-21T10:39:36;10.90;99.90
33994;DHT22;20673;48.980;8.138;2023-11-21T10:42:04;10.90;99.90
33994;DHT22;20673;48.980;8.138;2023-11-21T10:44:34;10.90;99.90
33994;DHT22;20673;48.980;8.138;2023-11-21T10:47:00;10.90;99.90
33994;DHT22;20673;48.980;8.138;2023-11-21T10:49:27;11.00;99.90
33994;DHT22;20673;48.980;8.138;2023-11-21T10:51:53;11.00;99.90
33994;DHT22;20673;48.980;8.138;2023-11-21T10:54:21;11.10;99.90
33994;DHT22;20673;48.980;8.138;2023-11-21T10:56:56;11.00;99.90
33994;DHT22;20673;48.980;8.138;2023-11-21T10:59:28;11.00;99.90
33994;DHT22;20673;48.980;8.138;2023-11-21T11:01:57;11.00;99.90
33994;DHT22;20673;48.980;8.138;2023-11-21T11:04:27;11.00;99.90
33994;DHT22;20673;48.980;8.138;2023-11-21T11:07:02;10.90;99.90
33994;DHT22;20673;48.980;8.138;2023-11-21T11:09:32;10.80;99.90
33994;DHT22;20673;48.980;8.138;2023-11-21T11:12:00;10.80;99.90
33994;DHT22;20673;48.980;8.138;2023-11-21T11:14:28;10.80;99.90
33994;DHT22;20673;48.980;8.138;2023-11-21T11:16:55;10.60;99.90
33994;DHT22;20673;48.980;8.138;2023-11-21T11:19:25;10.60;99.90
33994;DHT22;20673;48.980;8.138;2023-11-21T11:27:59;10.30;99.90
33994;DHT22;20673;48.980;8.138;2023-11-21T11:36:42;10.50;99.90
33994;DHT22;20673;48.980;8.138;2023-11-21T11:42:01;10.60;99.90
33994;DHT22;20673;48.980;8.138;2023-11-21T11:50:11;10.80;99.90
33994;DHT22;20673;48.980;8.138;2023-11-21T11:52:44;10.90;99.90
33994;DHT22;20673;48.980;8.138;2023-11-21T11:55:13;11.00;99.90
33994;DHT22;20673;48.980;8.138;2023-11-21T11:57:42;11.10;99.90
33994;DHT22;20673;48.980;8.138;2023-11-21T12:02:58;11.30;99.90
33994;DHT22;20673;48.980;8.138;2023-11-21T12:05:23;11.30;99.90
33994;DHT22;20673;48.980;8.138;2023-11-21T12:07:54;11.50;99.90
33994;DHT22;20673;48.980;8.138;2023-11-21T12:10:26;11.40;99.90
33994;DHT22;20673;48.980;8.138;2023-11-21T12:12:58;11.40;99.90
33994;DHT22;20673;48.980;8.138;2023-11-21T12:15:39;11.50;99.90
33994;DHT22;20673;48.980;8.138;2023-11-21T12:18:07;11.50;99.90
33994;DHT22;20673;48.980;8.138;2023-11-21T12:20:34;11.80;99.90
33994;DHT22;20673;48.980;8.138;2023-11-21T12:23:08;12.00;99.90
33994;DHT22;20673;48.980;8.138;2023-11-21T12:25:35;12.30;99.90
33994;DHT22;20673;48.980;8.138;2023-11-21T12:28:02;12.50;99.90
33994;DHT22;20673;48.980;8.138;2023-11-21T12:30:30;12.70;99.90
33994;DHT22;20673;48.980;8.138;2023-11-21T12:33:01;12.80;99.90
33994;DHT22;20673;48.980;8.138;2023-11-21T12:35:30;12.80;99.90
33994;DHT22;20673;48.980;8.138;2023-11-21T12:38:06;12.60;99.90
33994;DHT22;20673;48.980;8.138;2023-11-21T12:40:32;12.50;99.90
33994;DHT22;20673;48.980;8.138;2023-11-21T12:42:59;12.40;99.90
33994;DHT22;20673;48.980;8.138;2023-11-21T12:45:29;12.30;99.90
33994;DHT22;20673;48.980;8.138;2023-11-21T12:48:04;12.00;99.90
33994;DHT22;20673;48.980;8.138;2023-11-21T12:50:36;11.80;99.90
33994;DHT22;20673;48.980;8.138;2023-11-21T12:53:10;11.80;99.90
33994;DHT22;20673;48.980;8.138;2023-11-21T12:55:44;11.60;99.90
33994;DHT22;20673;48.980;8.138;2023-11-21T12:58:12;11.70;99.90
33994;DHT22;20673;48.980;8.138;2023-11-21T13:00:42;11.50;99.90
33994;DHT22;20673;48.980;8.138;2023-11-21T13:03:13;11.70;99.90
33994;DHT22;20673;48.980;8.138;2023-11-21T13:05:46;11.90;99.90
33994;DHT22;20673;48.980;8.138;2023-11-21T13:08:16;12.00;99.90
33994;DHT22;20673;48.980;8.138;2023-11-21T13:10:45;11.90;99.90
33994;DHT22;20673;48.980;8.138;2023-11-21T13:13:14;11.90;99.90
33994;DHT22;20673;48.980;8.138;2023-11-21T13:18:26;11.60;99.90
33994;DHT22;20673;48.980;8.138;2023-11-21T13:20:56;11.50;99.90
33994;DHT22;20673;48.980;8.138;2023-11-21T13:23:24;11.50;99.90
33994;DHT22;20673;48.980;8.138;2023-11-21T13:25:54;11.50;99.90
33994;DHT22;20673;48.980;8.138;2023-11-21T13:28:21;11.50;99.90
33994;DHT22;20673;48.980;8.138;2023-11-21T13:30:49;11.50;99.90
33994;DHT22;20673;48.980;8.138;2023-11-21T13:33:17;11.50;99.90
33994;DHT22;20673;48.980;8.138;2023-11-21T13:35:45;11.70;99.90
33994;DHT22;20673;48.980;8.138;2023-11-21T13:38:16;11.90;99.90
33994;DHT22;20673;48.980;8.138;2023-11-21T13:40:51;11.90;99.90
33994;DHT22;20673;48.980;8.138;2023-11-21T13:43:21;11.90;99.90
33994;DHT22;20673;48.980;8.138;2023-11-21T13:45:50;11.80;99.90
33994;DHT22;20673;48.980;8.138;2023-11-21T13:48:18;11.70;99.90
33994;DHT22;20673;48.980;8.138;2023-11-21T13:50:46;11.70;99.90
33994;DHT22;20673;48.980;8.138;2023-11-21T13:53:14;11.50;99.90
33994;DHT22;20673;48.980;8.138;2023-11-21T13:55:45;11.50;99.90
33994;DHT22;20673;48.980;8.138;2023-11-21T13:58:11;11.30;99.90
33994;DHT22;20673;48.980;8.138;2023-11-21T14:00:39;11.30;99.90
33994;DHT22;20673;48.980;8.138;2023-11-21T14:03:13;11.20;99.90
33994;DHT22;20673;48.980;8.138;2023-11-21T14:05:45;11.20;99.90
33994;DHT22;20673;48.980;8.138;2023-11-21T14:08:13;11.20;99.90
33994;DHT22;20673;48.980;8.138;2023-11-21T14:10:41;11.20;99.90
33994;DHT22;20673;48.980;8.138;2023-11-21T14:13:09;11.20;99.90
33994;DHT22;20673;48.980;8.138;2023-11-21T14:15:39;11.10;99.90
33994;DHT22;20673;48.980;8.138;2023-11-21T14:18:10;11.00;99.90
33994;DHT22;20673;48.980;8.138;2023-11-21T14:20:42;11.00;99.90
33994;DHT22;20673;48.980;8.138;2023-11-21T14:23:10;11.00;99.90
33994;DHT22;20673;48.980;8.138;2023-11-21T14:25:37;11.00;99.90
33994;DHT22;20673;48.980;8.138;2023-11-21T14:28:05;11.10;99.90
33994;DHT22;20673;48.980;8.138;2023-11-21T14:30:32;11.10;99.90
33994;DHT22;20673;48.980;8.138;2023-11-21T14:33:01;11.00;99.90
33994;DHT22;20673;48.980;8.138;2023-11-21T14:35:28;11.00;99.90
33994;DHT22;20673;48.980;8.138;2023-11-21T14:37:56;11.00;99.90
33994;DHT22;20673;48.980;8.138;2023-11-21T14:40:23;11.00;99.90
33994;DHT22;20673;48.980;8.138;2023-11-21T14:42:50;11.00;99.90
33994;DHT22;20673;48.980;8.138;2023-11-21T14:45:19;11.00;99.90
33994;DHT22;20673;48.980;8.138;2023-11-21T14:47:46;11.00;99.90
33994;DHT22;20673;48.980;8.138;2023-11-21T14:50:17;10.90;99.90
33994;DHT22;20673;48.980;8.138;2023-11-21T14:52:48;10.90;99.90
33994;DHT22;20673;48.980;8.138;2023-11-21T14:55:16;10.90;99.90
33994;DHT22;20673;48.980;8.138;2023-11-21T14:57:47;10.90;99.90
33994;DHT22;20673;48.980;8.138;2023-11-21T15:00:17;10.80;99.90
33994;DHT22;20673;48.980;8.138;2023-11-21T15:02:58;10.90;99.90
33994;DHT22;20673;48.980;8.138;2023-11-21T15:05:24;10.80;99.90
33994;DHT22;20673;48.980;8.138;2023-11-21T15:07:53;10.80;99.90
33994;DHT22;20673;48.980;8.138;2023-11-21T15:10:24;10.80;99.90
33994;DHT22;20673;48.980;8.138;2023-11-21T15:12:52;10.70;99.90
33994;DHT22;20673;48.980;8.138;2023-11-21T15:15:18;10.70;99.90
33994;DHT22;20673;48.980;8.138;2023-11-21T15:17:44;10.70;99.90
33994;DHT22;20673;48.980;8.138;2023-11-21T15:20:11;10.70;99.90
33994;DHT22;20673;48.980;8.138;2023-11-21T15:22:39;10.60;99.90
33994;DHT22;20673;48.980;8.138;2023-11-21T15:25:05;10.60;99.90
33994;DHT22;20673;48.980;8.138;2023-11-21T15:27:34;10.60;99.90
33994;DHT22;20673;48.980;8.138;2023-11-21T15:30:00;10.50;99.90
33994;DHT22;20673;48.980;8.138;2023-11-21T15:32:26;10.50;99.90
33994;DHT22;20673;48.980;8.138;2023-11-21T15:34:52;10.40;99.90
33994;DHT22;20673;48.980;8.138;2023-11-21T15:37:18;10.30;99.90
33994;DHT22;20673;48.980;8.138;2023-11-21T15:39:44;10.20;99.90
33994;DHT22;20673;48.980;8.138;2023-11-21T15:42:11;10.20;99.90
33994;DHT22;20673;48.980;8.138;2023-11-21T15:44:37;10.10;99.90
33994;DHT22;20673;48.980;8.138;2023-11-21T15:47:04;10.00;99.90
33994;DHT22;20673;48.980;8.138;2023-11-21T15:49:32;10.00;99.90
33994;DHT22;20673;48.980;8.138;2023-11-21T15:52:00;10.00;99.90
33994;DHT22;20673;48.980;8.138;2023-11-21T15:54:26;9.90;99.90
33994;DHT22;20673;48.980;8.138;2023-11-21T15:56:54;9.90;99.90
33994;DHT22;20673;48.980;8.138;2023-11-21T15:59:23;9.90;99.90
33994;DHT22;20673;48.980;8.138;2023-11-21T16:01:51;9.80;99.90
33994;DHT22;20673;48.980;8.138;2023-11-21T16:04:17;9.80;99.90
33994;DHT22;20673;48.980;8.138;2023-11-21T16:06:46;9.70;99.90
33994;DHT22;20673;48.980;8.138;2023-11-21T16:09:13;9.60;99.90
33994;DHT22;20673;48.980;8.138;2023-11-21T16:11:59;9.60;99.90
33994;DHT22;20673;48.980;8.138;2023-11-21T16:14:32;9.50;99.90